sensor_id;sensor_type;location;lat;lon;timestamp;temperature;humidity
7676;DHT22;3880;51.464;-2.566;2022-07-12T00:00:50;23.90;99.90
7676;DHT22;3880;51.464;-2.566;2022-07-12T00:03:17;23.80;99.90
7676;DHT22;3880;51.464;-2.566;2022-07-12T00:05:44;23.80;99.90
7676;DHT22;3880;51.464;-2.566;2022-07-12T00:08:11;23.60;99.90
7676;DHT22;3880;51.464;-2.566;2022-07-12T00:10:39;23.50;99.90
7676;DHT22;3880;51.464;-2.566;2022-07-12T00:13:06;23.30;99.90
7676;DHT22;3880;51.464;-2.566;2022-07-12T00:15:33;23.40;99.90
7676;DHT22;3880;51.464;-2.566;2022-07-12T00:18:00;23.30;99.90
7676;DHT22;3880;51.464;-2.566;2022-07-12T00:20:27;23.40;99.90
7676;DHT22;3880;51.464;-2.566;2022-07-12T00:22:54;23.50;99.90
7676;DHT22;3880;51.464;-2.566;2022-07-12T00:25:22;23.60;99.90
7676;DHT22;3880;51.464;-2.566;2022-07-12T00:27:50;23.60;99.90
7676;DHT22;3880;51.464;-2.566;2022-07-12T00:30:17;23.70;99.90
7676;DHT22;3880;51.464;-2.566;2022-07-12T00:32:44;23.50;99.90
7676;DHT22;3880;51.464;-2.566;2022-07-12T00:35:13;23.50;99.90
7676;DHT22;3880;51.464;-2.566;2022-07-12T00:37:41;23.40;99.90
7676;DHT22;3880;51.464;-2.566;2022-07-12T00:40:09;23.30;99.90
7676;DHT22;3880;51.464;-2.566;2022-07-12T00:42:37;23.20;99.90
7676;DHT22;3880;51.464;-2.566;2022-07-12T00:45:07;23.10;99.90
7676;DHT22;3880;51.464;-2.566;2022-07-12T00:47:35;23.20;99.90
7676;DHT22;3880;51.464;-2.566;2022-07-12T00:50:05;23.10;99.90
7676;DHT22;3880;51.464;-2.566;2022-07-12T00:52:33;23.10;99.90
7676;DHT22;3880;51.464;-2.566;2022-07-12T00:55:00;22.80;99.90
7676;DHT22;3880;51.464;-2.566;2022-07-12T00:57:27;22.60;99.90
7676;DHT22;3880;51.464;-2.566;2022-07-12T00:59:54;22.50;99.90
7676;DHT22;3880;51.464;-2.566;2022-07-12T01:02:23;22.60;99.90
7676;DHT22;3880;51.464;-2.566;2022-07-12T01:04:51;22.80;99.90
7676;DHT22;3880;51.464;-2.566;2022-07-12T01:07:18;22.90;99.90
7676;DHT22;3880;51.464;-2.566;2022-07-12T01:09:45;22.80;99.90
7676;DHT22;3880;51.464;-2.566;2022-07-12T01:12:13;22.80;99.90
7676;DHT22;3880;51.464;-2.566;2022-07-12T01:14:40;22.60;99.90
7676;DHT22;3880;51.464;-2.566;2022-07-12T01:17:08;22.50;99.90
7676;DHT22;3880;51.464;-2.566;2022-07-12T01:19:37;22.40;99.90
7676;DHT22;3880;51.464;-2.566;2022-07-12T01:22:08;22.50;99.90
7676;DHT22;3880;51.464;-2.566;2022-07-12T01:24:37;22.50;99.90
7676;DHT22;3880;51.464;-2.566;2022-07-12T01:27:04;22.50;99.90
7676;DHT22;3880;51.464;-2.566;2022-07-12T01:29:31;22.40;99.90
7676;DHT22;3880;51.464;-2.566;2022-07-12T01:32:00;22.20;99.90
7676;DHT22;3880;51.464;-2.566;2022-07-12T01:34:50;22.20;99.90
7676;DHT22;3880;51.464;-2.566;2022-07-12T01:37:19;22.20;99.90
7676;DHT22;3880;51.464;-2.566;2022-07-12T01:39:50;22.00;99.90
7676;DHT22;3880;51.464;-2.566;2022-07-12T01:42:17;21.90;99.90
7676;DHT22;3880;51.464;-2.566;2022-07-12T01:44:44;21.90;99.90
7676;DHT22;3880;51.464;-2.566;2022-07-12T01:47:12;21.90;99.90
7676;DHT22;3880;51.464;-2.566;2022-07-12T01:49:39;21.70;99.90
7676;DHT22;3880;51.464;-2.566;2022-07-12T01:52:06;21.70;99.90
7676;DHT22;3880;51.464;-2.566;2022-07-12T01:54:34;21.90;99.90
7676;DHT22;3880;51.464;-2.566;2022-07-12T01:57:03;21.90;99.90
7676;DHT22;3880;51.464;-2.566;2022-07-12T01:59:30;22.10;99.90
7676;DHT22;3880;51.464;-2.566;2022-07-12T02:01:57;22.10;99.90
7676;DHT22;3880;51.464;-2.566;2022-07-12T02:04:25;22.10;99.90
7676;DHT22;3880;51.464;-2.566;2022-07-12T02:06:51;22.20;99.90
7676;DHT22;3880;51.464;-2.566;2022-07-12T02:09:19;22.30;99.90
7676;DHT22;3880;51.464;-2.566;2022-07-12T02:11:46;22.20;99.90
7676;DHT22;3880;51.464;-2.566;2022-07-12T02:14:15;22.10;99.90
7676;DHT22;3880;51.464;-2.566;2022-07-12T02:16:43;22.20;99.90
7676;DHT22;3880;51.464;-2.566;2022-07-12T02:19:11;22.30;99.90
7676;DHT22;3880;51.464;-2.566;2022-07-12T02:21:39;22.20;99.90
7676;DHT22;3880;51.464;-2.566;2022-07-12T02:24:07;22.30;99.90
7676;DHT22;3880;51.464;-2.566;2022-07-12T02:26:37;22.20;99.90
7676;DHT22;3880;51.464;-2.566;2022-07-12T02:29:05;22.20;99.90
7676;DHT22;3880;51.464;-2.566;2022-07-12T02:31:34;22.30;99.90
7676;DHT22;3880;51.464;-2.566;2022-07-12T02:34:01;22.40;99.90
7676;DHT22;3880;51.464;-2.566;2022-07-12T02:36:29;22.30;99.90
7676;DHT22;3880;51.464;-2.566;2022-07-12T02:38:57;22.00;99.90
7676;DHT22;3880;51.464;-2.566;2022-07-12T02:41:28;21.90;99.90
7676;DHT22;3880;51.464;-2.566;2022-07-12T02:43:55;22.00;99.90
7676;DHT22;3880;51.464;-2.566;2022-07-12T02:46:23;22.00;99.90
7676;DHT22;3880;51.464;-2.566;2022-07-12T02:48:51;21.80;99.90
7676;DHT22;3880;51.464;-2.566;2022-07-12T02:51:19;21.70;99.90
7676;DHT22;3880;51.464;-2.566;2022-07-12T02:53:46;21.80;99.90
7676;DHT22;3880;51.464;-2.566;2022-07-12T02:56:13;21.90;99.90
7676;DHT22;3880;51.464;-2.566;2022-07-12T02:58:40;21.90;99.90
7676;DHT22;3880;51.464;-2.566;2022-07-12T03:01:07;21.60;99.90
7676;DHT22;3880;51.464;-2.566;2022-07-12T03:03:34;21.50;99.90
7676;DHT22;3880;51.464;-2.566;2022-07-12T03:06:03;21.50;99.90
7676;DHT22;3880;51.464;-2.566;2022-07-12T03:08:30;21.40;99.90
7676;DHT22;3880;51.464;-2.566;2022-07-12T03:10:57;21.50;99.90
7676;DHT22;3880;51.464;-2.566;2022-07-12T03:13:25;21.40;99.90
7676;DHT22;3880;51.464;-2.566;2022-07-12T03:15:52;21.60;99.90
7676;DHT22;3880;51.464;-2.566;2022-07-12T03:18:19;21.60;99.90
7676;DHT22;3880;51.464;-2.566;2022-07-12T03:20:49;21.70;99.90
7676;DHT22;3880;51.464;-2.566;2022-07-12T03:23:18;21.70;99.90
7676;DHT22;3880;51.464;-2.566;2022-07-12T03:25:44;21.40;99.90
7676;DHT22;3880;51.464;-2.566;2022-07-12T03:28:12;21.50;99.90
7676;DHT22;3880;51.464;-2.566;2022-07-12T03:30:39;21.40;99.90
7676;DHT22;3880;51.464;-2.566;2022-07-12T03:33:06;21.40;99.90
7676;DHT22;3880;51.464;-2.566;2022-07-12T03:35:33;21.40;99.90
7676;DHT22;3880;51.464;-2.566;2022-07-12T03:38:01;21.40;99.90
7676;DHT22;3880;51.464;-2.566;2022-07-12T03:40:32;21.30;99.90
7676;DHT22;3880;51.464;-2.566;2022-07-12T03:43:00;20.90;99.90
7676;DHT22;3880;51.464;-2.566;2022-07-12T03:45:27;20.80;99.90
7676;DHT22;3880;51.464;-2.566;2022-07-12T03:47:54;20.90;99.90
7676;DHT22;3880;51.464;-2.566;2022-07-12T03:50:21;21.00;99.90
7676;DHT22;3880;51.464;-2.566;2022-07-12T03:52:49;20.70;99.90
7676;DHT22;3880;51.464;-2.566;2022-07-12T03:55:16;20.80;99.90
7676;DHT22;3880;51.464;-2.566;2022-07-12T03:57:44;21.00;99.90
7676;DHT22;3880;51.464;-2.566;2022-07-12T04:00:12;21.00;99.90
7676;DHT22;3880;51.464;-2.566;2022-07-12T04:02:40;20.90;99.90
7676;DHT22;3880;51.464;-2.566;2022-07-12T04:05:10;20.90;99.90
7676;DHT22;3880;51.464;-2.566;2022-07-12T04:07:37;21.00;99.90
7676;DHT22;3880;51.464;-2.566;2022-07-12T04:10:05;21.00;99.90
7676;DHT22;3880;51.464;-2.566;2022-07-12T04:12:33;21.20;99.90
7676;DHT22;3880;51.464;-2.566;2022-07-12T04:15:01;21.20;99.90
7676;DHT22;3880;51.464;-2.566;2022-07-12T04:17:28;21.20;99.90
7676;DHT22;3880;51.464;-2.566;2022-07-12T04:19:55;21.20;99.90
7676;DHT22;3880;51.464;-2.566;2022-07-12T04:22:22;21.30;99.90
7676;DHT22;3880;51.464;-2.566;2022-07-12T04:24:49;21.20;99.90
7676;DHT22;3880;51.464;-2.566;2022-07-12T04:27:16;21.20;99.90
7676;DHT22;3880;51.464;-2.566;2022-07-12T04:29:44;21.30;99.90
7676;DHT22;3880;51.464;-2.566;2022-07-12T04:32:12;21.30;99.90
7676;DHT22;3880;51.464;-2.566;2022-07-12T04:34:39;21.00;99.90
7676;DHT22;3880;51.464;-2.566;2022-07-12T04:37:07;21.10;99.90
7676;DHT22;3880;51.464;-2.566;2022-07-12T04:39:34;21.20;99.90
7676;DHT22;3880;51.464;-2.566;2022-07-12T04:42:00;21.10;99.90
7676;DHT22;3880;51.464;-2.566;2022-07-12T04:44:28;21.20;99.90
7676;DHT22;3880;51.464;-2.566;2022-07-12T04:46:55;21.30;99.90
7676;DHT22;3880;51.464;-2.566;2022-07-12T04:49:23;21.50;99.90
7676;DHT22;3880;51.464;-2.566;2022-07-12T04:51:50;21.30;99.90
7676;DHT22;3880;51.464;-2.566;2022-07-12T04:54:17;21.30;99.90
7676;DHT22;3880;51.464;-2.566;2022-07-12T04:56:44;21.30;99.90
7676;DHT22;3880;51.464;-2.566;2022-07-12T04:59:11;21.30;99.90
7676;DHT22;3880;51.464;-2.566;2022-07-12T05:01:38;21.10;99.90
7676;DHT22;3880;51.464;-2.566;2022-07-12T05:04:05;21.10;99.90
7676;DHT22;3880;51.464;-2.566;2022-07-12T05:06:34;21.30;99.90
7676;DHT22;3880;51.464;-2.566;2022-07-12T05:09:01;21.30;99.90
7676;DHT22;3880;51.464;-2.566;2022-07-12T05:11:28;21.10;99.90
7676;DHT22;3880;51.464;-2.566;2022-07-12T05:13:55;21.00;99.90
7676;DHT22;3880;51.464;-2.566;2022-07-12T05:16:22;20.90;99.90
7676;DHT22;3880;51.464;-2.566;2022-07-12T05:18:49;21.00;99.90
7676;DHT22;3880;51.464;-2.566;2022-07-12T05:21:18;21.30;99.90
7676;DHT22;3880;51.464;-2.566;2022-07-12T05:23:47;21.40;99.90
7676;DHT22;3880;51.464;-2.566;2022-07-12T05:26:14;21.60;99.90
7676;DHT22;3880;51.464;-2.566;2022-07-12T05:28:41;21.70;99.90
7676;DHT22;3880;51.464;-2.566;2022-07-12T05:31:09;21.80;99.90
7676;DHT22;3880;51.464;-2.566;2022-07-12T05:33:36;21.90;99.90
7676;DHT22;3880;51.464;-2.566;2022-07-12T05:36:04;22.00;99.90
7676;DHT22;3880;51.464;-2.566;2022-07-12T05:38:31;22.10;99.90
7676;DHT22;3880;51.464;-2.566;2022-07-12T05:41:00;21.90;99.90
7676;DHT22;3880;51.464;-2.566;2022-07-12T05:43:26;21.80;99.90
7676;DHT22;3880;51.464;-2.566;2022-07-12T05:45:54;21.90;99.90
7676;DHT22;3880;51.464;-2.566;2022-07-12T05:48:22;22.00;99.90
7676;DHT22;3880;51.464;-2.566;2022-07-12T05:50:49;22.10;99.90
7676;DHT22;3880;51.464;-2.566;2022-07-12T05:53:16;22.00;99.90
7676;DHT22;3880;51.464;-2.566;2022-07-12T05:55:48;22.00;99.90
7676;DHT22;3880;51.464;-2.566;2022-07-12T05:58:17;22.00;99.90
7676;DHT22;3880;51.464;-2.566;2022-07-12T06:00:46;22.20;99.90
7676;DHT22;3880;51.464;-2.566;2022-07-12T06:03:14;22.30;99.90
7676;DHT22;3880;51.464;-2.566;2022-07-12T06:05:42;22.40;99.90
7676;DHT22;3880;51.464;-2.566;2022-07-12T06:08:09;22.50;99.90
7676;DHT22;3880;51.464;-2.566;2022-07-12T06:10:36;22.50;99.90
7676;DHT22;3880;51.464;-2.566;2022-07-12T06:13:03;22.30;99.90
7676;DHT22;3880;51.464;-2.566;2022-07-12T06:15:33;22.30;99.90
7676;DHT22;3880;51.464;-2.566;2022-07-12T06:18:00;22.30;99.90
7676;DHT22;3880;51.464;-2.566;2022-07-12T06:20:28;22.30;99.90
7676;DHT22;3880;51.464;-2.566;2022-07-12T06:22:56;22.40;99.90
7676;DHT22;3880;51.464;-2.566;2022-07-12T06:25:23;22.10;99.90
7676;DHT22;3880;51.464;-2.566;2022-07-12T06:27:50;21.70;99.90
7676;DHT22;3880;51.464;-2.566;2022-07-12T06:30:18;21.60;99.90
7676;DHT22;3880;51.464;-2.566;2022-07-12T06:32:47;21.70;99.90
7676;DHT22;3880;51.464;-2.566;2022-07-12T06:35:14;22.00;99.90
7676;DHT22;3880;51.464;-2.566;2022-07-12T06:37:42;21.90;99.90
7676;DHT22;3880;51.464;-2.566;2022-07-12T06:40:10;22.10;99.90
7676;DHT22;3880;51.464;-2.566;2022-07-12T06:42:38;22.30;99.90
7676;DHT22;3880;51.464;-2.566;2022-07-12T06:45:06;22.60;99.90
7676;DHT22;3880;51.464;-2.566;2022-07-12T06:47:33;22.90;99.90
7676;DHT22;3880;51.464;-2.566;2022-07-12T06:50:01;23.00;99.90
7676;DHT22;3880;51.464;-2.566;2022-07-12T06:52:29;22.90;99.90
7676;DHT22;3880;51.464;-2.566;2022-07-12T06:54:56;23.20;99.90
7676;DHT22;3880;51.464;-2.566;2022-07-12T06:57:23;22.90;99.90
7676;DHT22;3880;51.464;-2.566;2022-07-12T06:59:55;22.70;99.90
7676;DHT22;3880;51.464;-2.566;2022-07-12T07:02:22;22.70;99.90
7676;DHT22;3880;51.464;-2.566;2022-07-12T07:04:49;22.90;99.90
7676;DHT22;3880;51.464;-2.566;2022-07-12T07:07:18;23.10;99.90
7676;DHT22;3880;51.464;-2.566;2022-07-12T07:09:45;23.40;99.90
7676;DHT22;3880;51.464;-2.566;2022-07-12T07:12:12;23.70;99.90
7676;DHT22;3880;51.464;-2.566;2022-07-12T07:14:39;24.10;99.90
7676;DHT22;3880;51.464;-2.566;2022-07-12T07:17:06;24.40;99.90
7676;DHT22;3880;51.464;-2.566;2022-07-12T07:19:35;24.50;99.90
7676;DHT22;3880;51.464;-2.566;2022-07-12T07:22:03;24.50;99.90
7676;DHT22;3880;51.464;-2.566;2022-07-12T07:24:31;24.80;99.90
7676;DHT22;3880;51.464;-2.566;2022-07-12T07:26:58;25.10;99.90
7676;DHT22;3880;51.464;-2.566;2022-07-12T07:29:26;25.40;99.90
7676;DHT22;3880;51.464;-2.566;2022-07-12T07:32:11;25.40;99.90
7676;DHT22;3880;51.464;-2.566;2022-07-12T07:34:38;25.60;99.90
7676;DHT22;3880;51.464;-2.566;2022-07-12T07:37:05;25.90;99.90
7676;DHT22;3880;51.464;-2.566;2022-07-12T07:39:34;26.00;99.90
7676;DHT22;3880;51.464;-2.566;2022-07-12T07:42:01;26.20;99.90
7676;DHT22;3880;51.464;-2.566;2022-07-12T07:44:28;26.40;99.90
7676;DHT22;3880;51.464;-2.566;2022-07-12T07:46:55;26.60;99.90
7676;DHT22;3880;51.464;-2.566;2022-07-12T07:49:22;26.50;99.90
7676;DHT22;3880;51.464;-2.566;2022-07-12T07:51:49;25.90;99.90
7676;DHT22;3880;51.464;-2.566;2022-07-12T07:54:16;25.80;99.90
7676;DHT22;3880;51.464;-2.566;2022-07-12T07:56:45;26.00;99.90
7676;DHT22;3880;51.464;-2.566;2022-07-12T07:59:12;26.00;99.90
7676;DHT22;3880;51.464;-2.566;2022-07-12T08:01:39;26.10;99.90
7676;DHT22;3880;51.464;-2.566;2022-07-12T08:04:12;26.30;99.90
7676;DHT22;3880;51.464;-2.566;2022-07-12T08:06:39;26.30;99.90
7676;DHT22;3880;51.464;-2.566;2022-07-12T08:09:08;26.20;99.90
7676;DHT22;3880;51.464;-2.566;2022-07-12T08:11:35;26.40;99.90
7676;DHT22;3880;51.464;-2.566;2022-07-12T08:14:04;26.80;99.90
7676;DHT22;3880;51.464;-2.566;2022-07-12T08:16:36;26.60;99.90
7676;DHT22;3880;51.464;-2.566;2022-07-12T08:19:04;25.60;99.90
7676;DHT22;3880;51.464;-2.566;2022-07-12T08:21:34;25.30;99.90
7676;DHT22;3880;51.464;-2.566;2022-07-12T08:24:01;25.50;99.90
7676;DHT22;3880;51.464;-2.566;2022-07-12T08:26:28;26.00;99.90
7676;DHT22;3880;51.464;-2.566;2022-07-12T08:28:55;26.40;99.90
7676;DHT22;3880;51.464;-2.566;2022-07-12T08:31:24;26.20;99.90
7676;DHT22;3880;51.464;-2.566;2022-07-12T08:33:51;26.20;99.90
7676;DHT22;3880;51.464;-2.566;2022-07-12T08:36:18;26.90;99.90
7676;DHT22;3880;51.464;-2.566;2022-07-12T08:38:46;26.90;99.90
7676;DHT22;3880;51.464;-2.566;2022-07-12T08:41:14;26.70;99.90
7676;DHT22;3880;51.464;-2.566;2022-07-12T08:43:41;27.00;99.90
7676;DHT22;3880;51.464;-2.566;2022-07-12T08:46:09;27.10;99.90
7676;DHT22;3880;51.464;-2.566;2022-07-12T08:48:39;27.20;99.90
7676;DHT22;3880;51.464;-2.566;2022-07-12T08:51:07;27.50;99.90
7676;DHT22;3880;51.464;-2.566;2022-07-12T08:53:35;27.70;99.90
7676;DHT22;3880;51.464;-2.566;2022-07-12T08:56:03;27.60;99.90
7676;DHT22;3880;51.464;-2.566;2022-07-12T08:58:31;27.80;99.90
7676;DHT22;3880;51.464;-2.566;2022-07-12T09:00:59;28.10;99.90
7676;DHT22;3880;51.464;-2.566;2022-07-12T09:03:26;28.50;99.90
7676;DHT22;3880;51.464;-2.566;2022-07-12T09:05:57;28.50;99.90
7676;DHT22;3880;51.464;-2.566;2022-07-12T09:08:26;28.70;99.90
7676;DHT22;3880;51.464;-2.566;2022-07-12T09:10:58;28.90;99.90
7676;DHT22;3880;51.464;-2.566;2022-07-12T09:13:52;28.90;99.90
7676;DHT22;3880;51.464;-2.566;2022-07-12T09:16:20;28.50;99.90
7676;DHT22;3880;51.464;-2.566;2022-07-12T09:18:48;28.40;99.90
7676;DHT22;3880;51.464;-2.566;2022-07-12T09:21:24;28.40;99.90
7676;DHT22;3880;51.464;-2.566;2022-07-12T09:23:53;28.20;99.90
7676;DHT22;3880;51.464;-2.566;2022-07-12T09:26:20;28.50;99.90
7676;DHT22;3880;51.464;-2.566;2022-07-12T09:28:49;28.50;99.90
7676;DHT22;3880;51.464;-2.566;2022-07-12T09:31:19;28.50;99.90
7676;DHT22;3880;51.464;-2.566;2022-07-12T09:34:02;28.50;99.90
7676;DHT22;3880;51.464;-2.566;2022-07-12T09:36:59;28.40;99.90
7676;DHT22;3880;51.464;-2.566;2022-07-12T09:39:26;28.60;99.90
7676;DHT22;3880;51.464;-2.566;2022-07-12T09:41:54;29.30;99.90
7676;DHT22;3880;51.464;-2.566;2022-07-12T09:44:23;29.00;99.90
7676;DHT22;3880;51.464;-2.566;2022-07-12T09:46:51;29.20;99.90
7676;DHT22;3880;51.464;-2.566;2022-07-12T09:49:19;29.80;99.90
7676;DHT22;3880;51.464;-2.566;2022-07-12T09:51:47;30.70;99.90
7676;DHT22;3880;51.464;-2.566;2022-07-12T09:54:21;31.00;99.70
7676;DHT22;3880;51.464;-2.566;2022-07-12T09:56:53;30.90;99.20
7676;DHT22;3880;51.464;-2.566;2022-07-12T09:59:24;30.80;99.70
7676;DHT22;3880;51.464;-2.566;2022-07-12T10:01:55;31.10;99.30
7676;DHT22;3880;51.464;-2.566;2022-07-12T10:04:29;31.10;98.90
7676;DHT22;3880;51.464;-2.566;2022-07-12T10:06:56;30.90;99.50
7676;DHT22;3880;51.464;-2.566;2022-07-12T10:09:26;30.60;99.80
7676;DHT22;3880;51.464;-2.566;2022-07-12T10:11:54;30.70;99.50
7676;DHT22;3880;51.464;-2.566;2022-07-12T10:14:22;30.60;99.90
7676;DHT22;3880;51.464;-2.566;2022-07-12T10:16:51;31.30;99.20
7676;DHT22;3880;51.464;-2.566;2022-07-12T10:19:26;32.20;98.80
7676;DHT22;3880;51.464;-2.566;2022-07-12T10:21:55;32.60;97.60
7676;DHT22;3880;51.464;-2.566;2022-07-12T10:24:46;31.80;98.00
7676;DHT22;3880;51.464;-2.566;2022-07-12T10:27:34;31.30;98.50
7676;DHT22;3880;51.464;-2.566;2022-07-12T10:30:18;31.00;98.60
7676;DHT22;3880;51.464;-2.566;2022-07-12T10:32:46;30.90;98.70
7676;DHT22;3880;51.464;-2.566;2022-07-12T10:35:17;30.20;99.70
7676;DHT22;3880;51.464;-2.566;2022-07-12T10:38:19;30.10;99.90
7676;DHT22;3880;51.464;-2.566;2022-07-12T10:40:49;29.80;99.70
7676;DHT22;3880;51.464;-2.566;2022-07-12T10:43:27;30.30;99.80
7676;DHT22;3880;51.464;-2.566;2022-07-12T10:46:22;30.10;99.40
7676;DHT22;3880;51.464;-2.566;2022-07-12T10:48:51;29.80;99.80
7676;DHT22;3880;51.464;-2.566;2022-07-12T10:51:19;29.60;99.90
7676;DHT22;3880;51.464;-2.566;2022-07-12T10:53:47;29.70;99.90
7676;DHT22;3880;51.464;-2.566;2022-07-12T10:56:18;30.00;99.90
7676;DHT22;3880;51.464;-2.566;2022-07-12T10:58:48;29.70;99.90
7676;DHT22;3880;51.464;-2.566;2022-07-12T11:01:17;29.70;99.90
7676;DHT22;3880;51.464;-2.566;2022-07-12T11:03:46;30.20;99.90
7676;DHT22;3880;51.464;-2.566;2022-07-12T11:06:16;31.00;99.90
7676;DHT22;3880;51.464;-2.566;2022-07-12T11:08:57;31.10;99.00
7676;DHT22;3880;51.464;-2.566;2022-07-12T11:11:28;30.90;99.10
7676;DHT22;3880;51.464;-2.566;2022-07-12T11:13:56;30.50;99.10
7676;DHT22;3880;51.464;-2.566;2022-07-12T11:16:24;30.50;99.90
7676;DHT22;3880;51.464;-2.566;2022-07-12T11:18:53;30.30;99.90
7676;DHT22;3880;51.464;-2.566;2022-07-12T11:21:22;30.30;99.80
7676;DHT22;3880;51.464;-2.566;2022-07-12T11:23:49;30.20;99.40
7676;DHT22;3880;51.464;-2.566;2022-07-12T11:26:17;30.50;98.60
7676;DHT22;3880;51.464;-2.566;2022-07-12T11:28:46;31.10;99.00
7676;DHT22;3880;51.464;-2.566;2022-07-12T11:31:15;31.40;97.80
7676;DHT22;3880;51.464;-2.566;2022-07-12T11:33:44;31.30;97.90
7676;DHT22;3880;51.464;-2.566;2022-07-12T11:36:12;31.60;97.40
7676;DHT22;3880;51.464;-2.566;2022-07-12T11:38:41;31.30;97.80
7676;DHT22;3880;51.464;-2.566;2022-07-12T11:41:09;30.90;98.40
7676;DHT22;3880;51.464;-2.566;2022-07-12T11:43:37;30.40;98.80
7676;DHT22;3880;51.464;-2.566;2022-07-12T11:46:06;29.70;99.10
7676;DHT22;3880;51.464;-2.566;2022-07-12T11:48:35;29.40;99.70
7676;DHT22;3880;51.464;-2.566;2022-07-12T11:51:04;30.00;99.90
7676;DHT22;3880;51.464;-2.566;2022-07-12T11:53:33;30.70;99.40
7676;DHT22;3880;51.464;-2.566;2022-07-12T11:56:04;31.40;99.40
7676;DHT22;3880;51.464;-2.566;2022-07-12T11:58:32;32.20;98.40
7676;DHT22;3880;51.464;-2.566;2022-07-12T12:01:00;32.80;98.30
7676;DHT22;3880;51.464;-2.566;2022-07-12T12:03:30;34.00;98.00
7676;DHT22;3880;51.464;-2.566;2022-07-12T12:05:58;35.70;96.40
7676;DHT22;3880;51.464;-2.566;2022-07-12T12:08:25;36.20;95.20
7676;DHT22;3880;51.464;-2.566;2022-07-12T12:10:54;35.60;95.20
7676;DHT22;3880;51.464;-2.566;2022-07-12T12:13:23;34.70;95.90
7676;DHT22;3880;51.464;-2.566;2022-07-12T12:15:51;33.80;96.50
7676;DHT22;3880;51.464;-2.566;2022-07-12T12:18:30;33.30;97.20
7676;DHT22;3880;51.464;-2.566;2022-07-12T12:20:58;32.80;97.60
7676;DHT22;3880;51.464;-2.566;2022-07-12T12:23:26;32.40;97.60
7676;DHT22;3880;51.464;-2.566;2022-07-12T12:26:08;31.60;98.10
7676;DHT22;3880;51.464;-2.566;2022-07-12T12:28:43;31.20;98.50
7676;DHT22;3880;51.464;-2.566;2022-07-12T12:31:11;31.20;98.70
7676;DHT22;3880;51.464;-2.566;2022-07-12T12:33:40;31.00;99.10
7676;DHT22;3880;51.464;-2.566;2022-07-12T12:36:16;30.90;99.00
7676;DHT22;3880;51.464;-2.566;2022-07-12T12:38:44;31.10;98.70
7676;DHT22;3880;51.464;-2.566;2022-07-12T12:41:11;30.90;99.30
7676;DHT22;3880;51.464;-2.566;2022-07-12T12:43:40;30.80;99.20
7676;DHT22;3880;51.464;-2.566;2022-07-12T12:46:07;30.90;98.90
7676;DHT22;3880;51.464;-2.566;2022-07-12T12:48:35;31.10;99.30
7676;DHT22;3880;51.464;-2.566;2022-07-12T12:51:06;30.90;98.90
7676;DHT22;3880;51.464;-2.566;2022-07-12T12:53:33;30.90;98.80
7676;DHT22;3880;51.464;-2.566;2022-07-12T12:56:05;30.90;99.10
7676;DHT22;3880;51.464;-2.566;2022-07-12T12:58:33;31.30;99.20
7676;DHT22;3880;51.464;-2.566;2022-07-12T13:01:01;31.50;99.00
7676;DHT22;3880;51.464;-2.566;2022-07-12T13:03:28;32.10;98.60
7676;DHT22;3880;51.464;-2.566;2022-07-12T13:05:55;32.90;98.30
7676;DHT22;3880;51.464;-2.566;2022-07-12T13:08:25;33.60;98.50
7676;DHT22;3880;51.464;-2.566;2022-07-12T13:10:53;34.70;96.80
7676;DHT22;3880;51.464;-2.566;2022-07-12T13:13:36;34.50;96.20
7676;DHT22;3880;51.464;-2.566;2022-07-12T13:16:03;34.40;96.90
7676;DHT22;3880;51.464;-2.566;2022-07-12T13:18:30;34.30;96.50
7676;DHT22;3880;51.464;-2.566;2022-07-12T13:20:57;33.80;97.00
7676;DHT22;3880;51.464;-2.566;2022-07-12T13:23:26;32.90;97.70
7676;DHT22;3880;51.464;-2.566;2022-07-12T13:25:53;32.20;98.60
7676;DHT22;3880;51.464;-2.566;2022-07-12T13:28:20;31.80;98.20
7676;DHT22;3880;51.464;-2.566;2022-07-12T13:30:47;31.80;98.70
7676;DHT22;3880;51.464;-2.566;2022-07-12T13:33:14;32.10;98.50
7676;DHT22;3880;51.464;-2.566;2022-07-12T13:35:41;32.70;98.30
7676;DHT22;3880;51.464;-2.566;2022-07-12T13:38:08;33.60;97.60
7676;DHT22;3880;51.464;-2.566;2022-07-12T13:40:37;33.80;97.40
7676;DHT22;3880;51.464;-2.566;2022-07-12T13:43:04;33.50;97.70
7676;DHT22;3880;51.464;-2.566;2022-07-12T13:45:31;34.10;97.60
7676;DHT22;3880;51.464;-2.566;2022-07-12T13:48:00;34.20;97.10
7676;DHT22;3880;51.464;-2.566;2022-07-12T13:50:28;33.60;97.50
7676;DHT22;3880;51.464;-2.566;2022-07-12T13:52:55;33.80;97.40
7676;DHT22;3880;51.464;-2.566;2022-07-12T13:55:24;33.70;97.40
7676;DHT22;3880;51.464;-2.566;2022-07-12T13:57:53;33.80;97.20
7676;DHT22;3880;51.464;-2.566;2022-07-12T14:00:20;33.70;97.60
7676;DHT22;3880;51.464;-2.566;2022-07-12T14:02:48;32.90;98.20
7676;DHT22;3880;51.464;-2.566;2022-07-12T14:05:16;32.10;98.50
7676;DHT22;3880;51.464;-2.566;2022-07-12T14:07:46;32.20;99.00
7676;DHT22;3880;51.464;-2.566;2022-07-12T14:10:13;32.20;99.00
7676;DHT22;3880;51.464;-2.566;2022-07-12T14:12:40;32.20;98.60
7676;DHT22;3880;51.464;-2.566;2022-07-12T14:15:10;32.70;98.00
7676;DHT22;3880;51.464;-2.566;2022-07-12T14:18:02;32.50;98.30
7676;DHT22;3880;51.464;-2.566;2022-07-12T14:20:30;32.20;97.50
7676;DHT22;3880;51.464;-2.566;2022-07-12T14:22:59;31.80;98.00
7676;DHT22;3880;51.464;-2.566;2022-07-12T14:25:26;31.70;97.80
7676;DHT22;3880;51.464;-2.566;2022-07-12T14:27:53;31.20;98.20
7676;DHT22;3880;51.464;-2.566;2022-07-12T14:30:22;31.10;98.70
7676;DHT22;3880;51.464;-2.566;2022-07-12T14:32:49;30.90;98.80
7676;DHT22;3880;51.464;-2.566;2022-07-12T14:35:16;30.30;99.40
7676;DHT22;3880;51.464;-2.566;2022-07-12T14:37:43;29.70;99.90
7676;DHT22;3880;51.464;-2.566;2022-07-12T14:40:11;29.60;99.90
7676;DHT22;3880;51.464;-2.566;2022-07-12T14:42:38;29.50;99.90
7676;DHT22;3880;51.464;-2.566;2022-07-12T14:45:07;29.20;99.90
7676;DHT22;3880;51.464;-2.566;2022-07-12T14:47:35;29.00;99.90
7676;DHT22;3880;51.464;-2.566;2022-07-12T14:50:03;28.90;99.90
7676;DHT22;3880;51.464;-2.566;2022-07-12T14:52:31;29.20;99.90
7676;DHT22;3880;51.464;-2.566;2022-07-12T14:54:58;29.20;99.90
7676;DHT22;3880;51.464;-2.566;2022-07-12T14:57:25;29.30;99.90
7676;DHT22;3880;51.464;-2.566;2022-07-12T14:59:52;29.20;99.90
7676;DHT22;3880;51.464;-2.566;2022-07-12T15:02:20;29.00;99.90
7676;DHT22;3880;51.464;-2.566;2022-07-12T15:04:49;28.30;99.90
7676;DHT22;3880;51.464;-2.566;2022-07-12T15:07:16;28.10;99.90
7676;DHT22;3880;51.464;-2.566;2022-07-12T15:09:44;28.20;99.90
7676;DHT22;3880;51.464;-2.566;2022-07-12T15:12:11;28.10;99.90
7676;DHT22;3880;51.464;-2.566;2022-07-12T15:14:38;28.00;99.90
7676;DHT22;3880;51.464;-2.566;2022-07-12T15:17:05;28.00;99.90
7676;DHT22;3880;51.464;-2.566;2022-07-12T15:19:32;28.00;99.90
7676;DHT22;3880;51.464;-2.566;2022-07-12T15:22:01;27.90;99.90
7676;DHT22;3880;51.464;-2.566;2022-07-12T15:24:29;27.80;99.90
7676;DHT22;3880;51.464;-2.566;2022-07-12T15:26:57;27.70;99.90
7676;DHT22;3880;51.464;-2.566;2022-07-12T15:29:24;27.60;99.90
7676;DHT22;3880;51.464;-2.566;2022-07-12T15:31:51;27.50;99.90
7676;DHT22;3880;51.464;-2.566;2022-07-12T15:34:18;27.60;99.90
7676;DHT22;3880;51.464;-2.566;2022-07-12T15:36:45;27.50;99.90
7676;DHT22;3880;51.464;-2.566;2022-07-12T15:39:14;27.50;99.90
7676;DHT22;3880;51.464;-2.566;2022-07-12T15:41:41;27.50;99.90
7676;DHT22;3880;51.464;-2.566;2022-07-12T15:44:08;27.70;99.90
7676;DHT22;3880;51.464;-2.566;2022-07-12T15:46:35;28.00;99.90
7676;DHT22;3880;51.464;-2.566;2022-07-12T15:49:04;28.00;99.90
7676;DHT22;3880;51.464;-2.566;2022-07-12T15:51:31;28.00;99.70
7676;DHT22;3880;51.464;-2.566;2022-07-12T15:54:17;27.90;99.80